OEJN/JED METAR and TAF weather

Enter ICAO airport designator
Station Type Date Time Source
OEJN METAR 2022/05/23 15:00 UTC NOAA

OEJN 231500Z 32018KT CAVOK 31/16 Q1004 NOSIG


Station Type Date Time Source
OEJN Decoded METAR 2022/05/23 15:00 UTC NOAA

Jeddah King Abdul Aziz International Airport , Saudi Arabia (OEJN) 21-42N 039-11E 17M
May 23, 2022 - 11:00 AM EDT / 2022.05.23 1500 UTC
Wind: from the NW (320 degrees) at 21 MPH (18 KT):0
Visibility: greater than 7 mile(s):0
Temperature: 87 F (31 C)
Dew Point: 60 F (16 C)
Relative Humidity: 40%
Pressure (altimeter): 29.65 in. Hg (1004 hPa)
ob: OEJN 231500Z 32018KT CAVOK 31/16 Q1004 NOSIG
cycle: 15

Station Type Date Time Source
OEJN TAF 2022/05/23 12:33 UTC NOAA

TAF OEJN 231100Z 2312/2418 33018KT CAVOK
BECMG 2400/2402 03005KT 7000 NSC
BECMG 2406/2408 33015KT

Example: see airport list